createdAt,value
2023-11-27T00:00:37.296Z,98542.34
2023-11-27T00:03:07.337Z,98540.38
2023-11-27T00:05:35.571Z,98540.00
2023-11-27T00:08:03.461Z,98537.03
2023-11-27T00:10:30.227Z,98530.50
2023-11-27T00:12:57.305Z,98520.72
2023-11-27T00:15:24.100Z,98518.59
2023-11-27T00:17:53.321Z,98512.88
2023-11-27T00:20:20.103Z,98516.78
2023-11-27T00:22:46.692Z,98516.78
2023-11-27T00:25:13.681Z,98526.25
2023-11-27T00:27:40.260Z,98525.56
2023-11-27T00:30:07.289Z,98534.69
2023-11-27T00:32:33.677Z,98539.34
2023-11-27T00:35:00.735Z,98529.00
2023-11-27T00:37:28.601Z,98533.78
2023-11-27T00:39:55.225Z,98519.72
2023-11-27T00:42:22.445Z,98524.78
2023-11-27T00:44:49.349Z,98524.50
2023-11-27T00:47:16.732Z,98523.81
2023-11-27T00:49:43.425Z,98525.06
2023-11-27T00:52:10.130Z,98519.88
2023-11-27T00:54:36.576Z,98517.22
2023-11-27T00:57:03.049Z,98522.13
2023-11-27T00:59:29.696Z,98501.84
2023-11-27T01:01:56.388Z,98507.94
2023-11-27T01:04:23.624Z,98516.13
2023-11-27T01:06:59.352Z,98517.88
2023-11-27T01:09:25.984Z,98511.69
2023-11-27T01:11:52.571Z,98507.44
2023-11-27T01:14:19.279Z,98496.03
2023-11-27T01:16:50.927Z,98495.91
2023-11-27T01:19:19.881Z,98498.41
2023-11-27T01:21:47.176Z,98495.84
2023-11-27T01:24:14.457Z,98501.00
2023-11-27T01:26:41.091Z,98499.06
2023-11-27T01:29:07.832Z,98493.19
2023-11-27T01:31:34.484Z,98496.03
2023-11-27T01:34:02.603Z,98505.66
2023-11-27T01:36:29.570Z,98500.84
2023-11-27T01:38:56.996Z,98495.28
2023-11-27T01:41:30.966Z,98496.78
2023-11-27T01:43:57.481Z,98493.09
2023-11-27T01:46:24.219Z,98488.28
2023-11-27T01:48:51.793Z,98498.94
2023-11-27T01:51:18.322Z,98482.00
2023-11-27T01:53:45.182Z,98476.91
2023-11-27T01:56:12.622Z,98488.34
2023-11-27T01:58:41.048Z,98485.09
2023-11-27T02:01:07.914Z,98488.28
2023-11-27T02:03:36.683Z,98480.44
2023-11-27T02:06:04.440Z,98487.47
2023-11-27T02:08:31.078Z,98486.25
2023-11-27T02:10:59.944Z,98482.94
2023-11-27T02:13:26.988Z,98482.19
2023-11-27T02:15:54.920Z,98480.63
2023-11-27T02:18:21.853Z,98482.22
2023-11-27T02:20:48.600Z,98472.91
2023-11-27T02:23:15.430Z,98472.13
2023-11-27T02:25:42.536Z,98468.25
2023-11-27T02:28:11.736Z,98467.69
2023-11-27T02:30:38.609Z,98467.78
2023-11-27T02:33:05.493Z,98472.31
2023-11-27T02:35:35.478Z,98473.97
2023-11-27T02:38:04.070Z,98475.59
2023-11-27T02:40:31.828Z,98469.94
2023-11-27T02:42:58.782Z,98471.81
2023-11-27T02:45:25.778Z,98467.97
2023-11-27T02:47:53.310Z,98465.34
2023-11-27T02:50:19.745Z,98465.88
2023-11-27T02:52:46.345Z,98455.69
2023-11-27T02:55:12.940Z,98459.66
2023-11-27T02:57:40.116Z,98447.19
2023-11-27T03:00:09.057Z,98445.47
2023-11-27T03:02:37.975Z,98448.78
2023-11-27T03:05:04.554Z,98432.59
2023-11-27T03:07:31.176Z,98444.06
2023-11-27T03:09:58.029Z,98445.38
2023-11-27T03:12:24.485Z,98444.53
2023-11-27T03:14:51.413Z,98446.16
2023-11-27T03:17:18.189Z,98443.78
2023-11-27T03:19:48.660Z,98444.81
2023-11-27T03:22:16.259Z,98432.81
2023-11-27T03:24:45.929Z,98445.03
2023-11-27T03:27:12.473Z,98439.63
2023-11-27T03:29:39.304Z,98436.31
2023-11-27T03:32:07.050Z,98438.31
2023-11-27T03:34:33.566Z,98441.88
2023-11-27T03:37:00.304Z,98440.19
2023-11-27T03:39:27.232Z,98438.88
2023-11-27T03:41:54.044Z,98433.47
2023-11-27T03:44:20.756Z,98437.03
2023-11-27T03:46:47.383Z,98429.28
2023-11-27T03:49:14.088Z,98427.69
2023-11-27T03:51:41.110Z,98437.53
2023-11-27T03:54:08.158Z,98439.63
2023-11-27T03:56:35.608Z,98439.63
2023-11-27T03:59:02.391Z,98440.88
2023-11-27T04:01:29.647Z,98444.56
2023-11-27T04:03:56.679Z,98439.03
2023-11-27T04:06:23.480Z,98449.41
2023-11-27T04:08:51.199Z,98447.31
2023-11-27T04:11:21.836Z,98446.66
2023-11-27T04:13:48.719Z,98442.56
2023-11-27T04:16:15.306Z,98449.22
2023-11-27T04:18:43.727Z,98447.28
2023-11-27T04:21:10.289Z,98434.53
2023-11-27T04:23:36.866Z,98427.34
2023-11-27T04:26:03.563Z,98433.69
2023-11-27T04:28:30.892Z,98429.44
2023-11-27T04:30:59.104Z,98427.56
2023-11-27T04:33:25.541Z,98427.13
2023-11-27T04:35:54.975Z,98428.25
2023-11-27T04:38:23.927Z,98425.81
2023-11-27T04:40:50.385Z,98426.28
2023-11-27T04:43:17.237Z,98425.63
2023-11-27T04:45:43.984Z,98425.81
2023-11-27T04:48:10.427Z,98424.53
2023-11-27T04:50:37.361Z,98420.38
2023-11-27T04:53:03.928Z,98418.75
2023-11-27T04:55:32.812Z,98419.25
2023-11-27T04:57:59.427Z,98405.91
2023-11-27T05:00:26.276Z,98410.63
2023-11-27T05:02:55.241Z,98416.09
2023-11-27T05:05:21.854Z,98410.13
2023-11-27T05:07:48.667Z,98404.69
2023-11-27T05:10:15.207Z,98413.94
2023-11-27T05:12:42.812Z,98408.94
2023-11-27T05:15:09.603Z,98405.53
2023-11-27T05:17:36.564Z,98408.69
2023-11-27T05:20:03.822Z,98413.22
2023-11-27T05:22:30.336Z,98413.78
2023-11-27T05:24:57.455Z,98426.38
2023-11-27T05:27:24.629Z,98421.09
2023-11-27T05:29:53.491Z,98419.69
2023-11-27T05:32:20.405Z,98411.44
2023-11-27T05:34:49.335Z,98422.63
2023-11-27T05:37:18.447Z,98421.50
2023-11-27T05:39:45.268Z,98419.97
2023-11-27T05:42:12.117Z,98424.22
2023-11-27T05:47:21.344Z,98421.34
2023-11-27T05:49:48.157Z,98419.34
2023-11-27T05:54:55.398Z,98421.69
2023-11-27T05:57:22.335Z,98424.38
2023-11-27T05:59:51.003Z,98405.84
2023-11-27T06:02:18.191Z,98420.09
2023-11-27T06:04:45.234Z,98417.13
2023-11-27T06:07:11.767Z,98415.22
2023-11-27T06:09:39.068Z,98413.19
2023-11-27T06:12:09.293Z,98425.00
2023-11-27T06:14:35.899Z,98434.16
2023-11-27T06:17:03.111Z,98425.63
2023-11-27T06:19:29.876Z,98430.38
2023-11-27T06:21:56.570Z,98417.69
2023-11-27T06:24:23.270Z,98423.56
2023-11-27T06:26:49.782Z,98423.47
2023-11-27T06:29:17.031Z,98419.34
2023-11-27T06:31:46.320Z,98412.78
2023-11-27T06:34:13.160Z,98413.09
2023-11-27T06:36:39.814Z,98408.09
2023-11-27T06:39:07.437Z,98412.13
2023-11-27T06:41:35.087Z,98416.19
2023-11-27T06:44:09.734Z,98407.63
2023-11-27T06:46:36.365Z,98411.59
2023-11-27T06:49:04.698Z,98403.50
2023-11-27T06:51:31.350Z,98407.03
2023-11-27T06:53:57.893Z,98400.41
2023-11-27T06:56:24.976Z,98413.19
2023-11-27T06:58:52.436Z,98404.09
2023-11-27T07:01:19.346Z,98405.84
2023-11-27T07:03:50.926Z,98408.44
2023-11-27T07:06:17.536Z,98403.06
2023-11-27T07:08:43.957Z,98399.72
2023-11-27T07:11:10.886Z,98389.75
2023-11-27T07:13:37.322Z,98393.94
2023-11-27T07:16:04.440Z,98397.94
2023-11-27T07:18:34.287Z,98396.59
2023-11-27T07:21:01.448Z,98394.13
2023-11-27T07:23:28.353Z,98388.75
2023-11-27T07:25:54.805Z,98394.75
2023-11-27T07:28:21.351Z,98388.25
2023-11-27T07:30:48.784Z,98390.88
2023-11-27T07:33:15.292Z,98387.13
2023-11-27T07:35:42.024Z,98394.19
2023-11-27T07:38:09.098Z,98395.81
2023-11-27T07:40:35.834Z,98398.19
2023-11-27T07:43:02.849Z,98396.00
2023-11-27T07:45:32.455Z,98390.22
2023-11-27T07:47:59.080Z,98397.16
2023-11-27T07:50:25.543Z,98384.56
2023-11-27T07:52:52.059Z,98392.16
2023-11-27T07:55:18.640Z,98381.69
2023-11-27T07:57:45.144Z,98385.94
2023-11-27T08:00:11.609Z,98385.66
2023-11-27T08:02:39.085Z,98389.50
2023-11-27T08:05:05.782Z,98397.84
2023-11-27T08:07:32.298Z,98392.59
2023-11-27T08:09:58.977Z,98397.88
2023-11-27T08:12:25.447Z,98402.25
2023-11-27T08:14:54.988Z,98409.19
2023-11-27T08:17:23.962Z,98403.53
2023-11-27T08:19:50.733Z,98402.94
2023-11-27T08:22:18.320Z,98407.66
2023-11-27T08:24:44.960Z,98403.41
2023-11-27T08:27:15.301Z,98402.41
2023-11-27T08:29:43.455Z,98393.09
2023-11-27T08:32:10.310Z,98401.78
2023-11-27T08:34:36.720Z,98402.97
2023-11-27T08:37:03.261Z,98391.91
2023-11-27T08:39:31.547Z,98396.16
2023-11-27T08:41:58.182Z,98395.13
2023-11-27T08:44:25.431Z,98398.81
2023-11-27T08:46:53.112Z,98393.34
2023-11-27T08:49:19.868Z,98396.09
2023-11-27T08:51:48.414Z,98389.50
2023-11-27T08:54:16.022Z,98392.03
2023-11-27T08:56:42.698Z,98390.16
2023-11-27T08:59:09.243Z,98383.88
2023-11-27T09:01:37.390Z,98384.00
2023-11-27T09:04:04.134Z,98381.75
2023-11-27T09:06:30.681Z,98378.78
2023-11-27T09:08:57.474Z,98388.50
2023-11-27T09:11:26.688Z,98377.38
2023-11-27T09:13:55.680Z,98378.16
2023-11-27T09:16:24.599Z,98370.31
2023-11-27T09:18:51.209Z,98364.03
2023-11-27T09:21:18.535Z,98364.50
2023-11-27T09:23:45.413Z,98363.94
2023-11-27T09:26:12.309Z,98363.66
2023-11-27T09:28:40.467Z,98360.44
2023-11-27T09:31:07.908Z,98353.00
2023-11-27T09:33:34.433Z,98354.16
2023-11-27T09:36:00.934Z,98350.97
2023-11-27T09:38:27.721Z,98347.25
2023-11-27T09:40:54.497Z,98345.88
2023-11-27T09:43:21.545Z,98329.13
2023-11-27T09:45:48.165Z,98333.94
2023-11-27T09:48:14.801Z,98321.38
2023-11-27T09:50:41.433Z,98320.94
2023-11-27T09:53:07.916Z,98319.66
2023-11-27T09:55:35.045Z,98302.25
2023-11-27T09:58:02.413Z,98294.06
2023-11-27T10:00:29.053Z,98296.88
2023-11-27T10:02:56.459Z,98292.06
2023-11-27T10:05:23.550Z,98281.88
2023-11-27T10:07:50.808Z,98266.41
2023-11-27T10:10:20.068Z,98268.31
2023-11-27T10:12:47.355Z,98253.94
2023-11-27T10:15:14.006Z,98254.63
2023-11-27T10:17:40.925Z,98247.63
2023-11-27T10:20:07.952Z,98243.41
2023-11-27T10:22:34.629Z,98230.97
2023-11-27T10:25:03.140Z,98232.28
2023-11-27T10:27:30.003Z,98227.41
2023-11-27T10:29:56.801Z,98228.97
2023-11-27T10:32:23.718Z,98225.41
2023-11-27T10:34:50.210Z,98217.84
2023-11-27T10:37:18.450Z,98216.06
2023-11-27T10:39:44.912Z,98215.81
2023-11-27T10:42:11.721Z,98211.84
2023-11-27T10:44:38.310Z,98209.28
2023-11-27T10:47:05.026Z,98204.88
2023-11-27T10:49:32.246Z,98203.69
2023-11-27T10:51:59.648Z,98207.38
2023-11-27T10:54:26.141Z,98202.50
2023-11-27T10:56:52.895Z,98202.03
2023-11-27T10:59:19.354Z,98191.91
2023-11-27T11:01:45.946Z,98180.00
2023-11-27T11:04:12.867Z,98180.84
2023-11-27T11:06:39.445Z,98170.66
2023-11-27T11:09:06.401Z,98165.19
2023-11-27T11:11:34.193Z,98161.38
2023-11-27T11:14:00.627Z,98162.94
2023-11-27T11:16:27.328Z,98165.38
2023-11-27T11:18:54.464Z,98166.25
2023-11-27T11:21:26.919Z,98159.13
2023-11-27T11:23:57.284Z,98159.66
2023-11-27T11:26:34.130Z,98162.59
2023-11-27T11:29:08.641Z,98161.69
2023-11-27T11:31:40.112Z,98156.41
2023-11-27T11:34:06.887Z,98151.97
2023-11-27T11:36:35.889Z,98160.06
2023-11-27T11:39:03.939Z,98155.13
2023-11-27T11:44:11.076Z,98153.13
2023-11-27T11:46:41.967Z,98146.88
2023-11-27T11:49:10.454Z,98133.66
2023-11-27T11:54:26.395Z,98126.66
2023-11-27T11:56:57.581Z,98119.69
2023-11-27T11:59:24.173Z,98119.06
2023-11-27T12:01:52.557Z,98117.69
2023-11-27T12:04:19.224Z,98113.84
2023-11-27T12:06:46.392Z,98111.00
2023-11-27T12:09:14.922Z,98113.06
2023-11-27T12:11:41.591Z,98107.06
2023-11-27T12:14:08.456Z,98105.69
2023-11-27T12:19:18.326Z,98100.56
2023-11-27T12:21:55.711Z,98104.94
2023-11-27T12:24:22.892Z,98095.72
2023-11-27T12:26:49.810Z,98085.31
2023-11-27T12:29:18.555Z,98092.22
2023-11-27T12:31:45.139Z,98082.88
2023-11-27T12:34:12.684Z,98085.41
2023-11-27T12:36:39.249Z,98082.56
2023-11-27T12:39:05.738Z,98085.13
2023-11-27T12:41:34.875Z,98081.19
2023-11-27T12:44:02.816Z,98076.66
2023-11-27T12:46:29.475Z,98074.81
2023-11-27T12:48:56.502Z,98077.78
2023-11-27T12:51:23.144Z,98076.44
2023-11-27T12:53:50.953Z,98071.75
2023-11-27T12:56:17.521Z,98057.13
2023-11-27T12:58:44.324Z,98064.66
2023-11-27T13:01:10.878Z,98063.28
2023-11-27T13:03:37.426Z,98054.91
2023-11-27T13:06:04.291Z,98053.91
2023-11-27T13:08:31.728Z,98056.53
2023-11-27T13:10:59.239Z,98055.13
2023-11-27T13:13:26.228Z,98040.72
2023-11-27T13:15:52.885Z,98029.94
2023-11-27T13:18:19.611Z,98033.03
2023-11-27T13:20:46.319Z,98019.34
2023-11-27T13:23:14.063Z,98015.47
2023-11-27T13:25:40.546Z,98012.38
2023-11-27T13:28:10.342Z,98008.56
2023-11-27T13:30:36.843Z,98010.09
2023-11-27T13:33:03.961Z,98003.59
2023-11-27T13:35:30.798Z,97998.00
2023-11-27T13:37:57.378Z,97991.34
2023-11-27T13:40:24.084Z,97996.47
2023-11-27T13:42:51.036Z,97990.06
2023-11-27T13:45:17.603Z,97988.25
2023-11-27T13:47:44.144Z,97986.63
2023-11-27T13:50:11.934Z,97979.22
2023-11-27T13:52:38.406Z,97973.41
2023-11-27T13:55:04.957Z,97969.81
2023-11-27T13:57:34.323Z,97971.38
2023-11-27T14:00:01.975Z,97951.75
2023-11-27T14:02:31.193Z,97947.22
2023-11-27T14:04:58.336Z,97935.44
2023-11-27T14:07:26.187Z,97928.16
2023-11-27T14:09:53.129Z,97926.63
2023-11-27T14:12:19.682Z,97940.97
2023-11-27T14:14:46.232Z,97937.91
2023-11-27T14:17:12.889Z,97924.19
2023-11-27T14:19:39.411Z,97926.13
2023-11-27T14:22:06.017Z,97932.47
2023-11-27T14:24:32.468Z,97925.16
2023-11-27T14:27:00.327Z,97917.34
2023-11-27T14:29:34.190Z,97921.47
2023-11-27T14:34:42.686Z,97914.06
2023-11-27T14:37:09.233Z,97911.66
2023-11-27T14:39:35.933Z,97911.59
2023-11-27T14:42:03.183Z,97911.59
2023-11-27T14:44:31.022Z,97902.25
2023-11-27T14:46:58.471Z,97905.78
2023-11-27T14:49:25.273Z,97893.13
2023-11-27T14:51:52.724Z,97890.53
2023-11-27T14:54:21.541Z,97887.31
2023-11-27T14:56:48.814Z,97888.50
2023-11-27T14:59:15.293Z,97890.63
2023-11-27T15:01:42.805Z,97876.94
2023-11-27T15:04:10.426Z,97882.34
2023-11-27T15:06:38.175Z,97871.25
2023-11-27T15:09:04.670Z,97868.16
2023-11-27T15:11:33.581Z,97857.19
2023-11-27T15:14:00.901Z,97863.69
2023-11-27T15:16:27.740Z,97865.78
2023-11-27T15:18:55.648Z,97860.03
2023-11-27T15:21:22.271Z,97849.56
2023-11-27T15:23:51.230Z,97849.16
2023-11-27T15:26:20.359Z,97846.72
2023-11-27T15:28:47.497Z,97846.63
2023-11-27T15:31:14.508Z,97852.44
2023-11-27T15:33:41.246Z,97847.66
2023-11-27T15:38:48.959Z,97846.78
2023-11-27T15:46:37.223Z,97839.69
2023-11-27T15:49:05.308Z,97829.03
2023-11-27T15:51:32.982Z,97827.97
2023-11-27T15:54:00.231Z,97814.06
2023-11-27T15:56:26.655Z,97822.34
2023-11-27T15:58:53.640Z,97808.78
2023-11-27T16:01:20.431Z,97807.84
2023-11-27T16:03:48.671Z,97808.13
2023-11-27T16:06:15.514Z,97792.41
2023-11-27T16:08:42.912Z,97795.59
2023-11-27T16:11:10.852Z,97787.03
2023-11-27T16:13:37.521Z,97789.66
2023-11-27T16:16:03.975Z,97784.00
2023-11-27T16:21:12.381Z,97770.38
2023-11-27T16:23:43.251Z,97773.28
2023-11-27T16:26:12.962Z,97768.66
2023-11-27T16:28:40.733Z,97768.84
2023-11-27T16:31:12.904Z,97758.25
2023-11-27T16:33:39.533Z,97763.97
2023-11-27T16:38:46.590Z,97750.84
2023-11-27T16:41:13.949Z,97745.63
2023-11-27T16:43:42.776Z,97728.22
2023-11-27T16:46:09.332Z,97726.28
2023-11-27T16:48:36.196Z,97728.13
2023-11-27T16:51:04.964Z,97724.06
2023-11-27T16:53:31.875Z,97714.38
2023-11-27T16:56:01.060Z,97706.28
2023-11-27T16:58:28.672Z,97699.66
2023-11-27T17:00:55.463Z,97707.22
2023-11-27T17:03:22.399Z,97696.44
2023-11-27T17:05:50.646Z,97703.69
2023-11-27T17:08:19.686Z,97695.94
2023-11-27T17:10:48.650Z,97692.50
2023-11-27T17:13:15.432Z,97686.09
2023-11-27T17:15:42.741Z,97682.28
2023-11-27T17:18:09.875Z,97674.22
2023-11-27T17:20:40.917Z,97669.00
2023-11-27T17:23:08.454Z,97666.72
2023-11-27T17:25:35.263Z,97661.94
2023-11-27T17:28:04.531Z,97668.00
2023-11-27T17:30:31.272Z,97660.56
2023-11-27T17:33:01.430Z,97656.59
2023-11-27T17:35:29.267Z,97646.69
2023-11-27T17:37:55.821Z,97643.97
2023-11-27T17:40:27.002Z,97631.56
2023-11-27T17:42:54.563Z,97628.59
2023-11-27T17:45:22.778Z,97618.16
2023-11-27T17:47:49.663Z,97614.97
2023-11-27T17:50:22.096Z,97614.44
2023-11-27T17:52:49.818Z,97613.44
2023-11-27T17:55:17.314Z,97605.69
2023-11-27T17:57:43.960Z,97604.44
2023-11-27T18:02:52.343Z,97610.25
2023-11-27T18:05:21.532Z,97597.03
2023-11-27T18:07:48.938Z,97591.91
2023-11-27T18:10:16.070Z,97585.50
2023-11-27T22:42:57.882Z,96978.56
2023-11-27T22:45:25.405Z,96969.09
2023-11-27T22:47:54.057Z,96964.91
2023-11-27T22:50:21.823Z,96957.94
2023-11-27T22:55:36.298Z,96946.13
2023-11-27T22:58:05.616Z,96938.75
2023-11-27T23:05:58.835Z,96943.53
2023-11-27T23:24:30.871Z,96910.97
2023-11-27T23:26:57.626Z,96901.47
2023-11-27T23:29:28.542Z,96914.50
2023-11-27T23:31:58.311Z,96914.69
2023-11-27T23:34:26.759Z,96918.78
2023-11-27T23:36:53.869Z,96903.34
2023-11-27T23:39:20.576Z,96900.16
2023-11-27T23:41:47.562Z,96902.41
2023-11-27T23:44:15.154Z,96895.53
2023-11-27T23:46:42.246Z,96899.63
2023-11-27T23:49:10.664Z,96908.53
2023-11-27T23:51:37.448Z,96904.81
2023-11-27T23:54:04.229Z,96898.88
2023-11-27T23:56:31.089Z,96897.84
2023-11-27T23:58:59.917Z,96910.41
